This is the latest recevied weather packets stored in our database for station/object VE6CWS-7. If no packets are shown the sender has not sent any weather packets the latest 10 day(s).
| Time | Temp. | Humidity | Pressure | Rain* | Wind** | Luminosity | Snow |
|---|---|---|---|---|---|---|---|
| 1777393838 | 5.56° C | 57% | 1018.6 hPa | 0 mm | - | - | - |
| 1777392935 | 5° C | 56% | 1018.8 hPa | 0 mm | - | - | - |
| 1777392094 | 4.44° C | 56% | 1018.9 hPa | 0 mm | - | - | - |
| 1777391158 | 4.44° C | 56% | 1018.7 hPa | 0 mm | - | - | - |
| 1777390256 | 3.33° C | 59% | 1018.8 hPa | 0 mm | - | - | - |
| 1777389353 | 2.78° C | 62% | 1018.8 hPa | 0 mm | - | - | - |
| 1777388509 | 2.22° C | 62% | 1018.7 hPa | 0 mm | - | - | - |
| 1777387558 | 2.22° C | 64% | 1018.7 hPa | 0 mm | - | - | - |
| 1777386656 | 1.67° C | 63% | 1018.6 hPa | 0 mm | - | - | - |
| 1777385756 | 0.56° C | 68% | 1018.5 hPa | 0 mm | - | - | - |
| 1777384906 | -0.56° C | 72% | 1018.4 hPa | 0 mm | - | - | - |
| 1777383955 | -1.67° C | 74% | 1018.3 hPa | 0 mm | - | - | - |
| 1777383044 | -2.22° C | 74% | 1018.2 hPa | 0 mm | - | - | - |
| 1777382141 | -2.22° C | 74% | 1018.2 hPa | 0 mm | - | - | - |
| 1777381300 | -2.78° C | 76% | 1017.9 hPa | 0 mm | - | - | - |
| 1777380339 | -3.89° C | 78% | 1017.9 hPa | 0 mm | - | - | - |
| 1777379449 | -4.44° C | 80% | 1017.9 hPa | 0 mm | - | - | - |
| 1777378537 | -4.44° C | 79% | 1018.1 hPa | 0 mm | - | - | - |
| 1777377694 | -4.44° C | 79% | 1018 hPa | 0 mm | - | - | - |
| 1777376762 | -3.89° C | 78% | 1018.1 hPa | 0 mm | - | - | - |
| 1777375855 | -3.89° C | 77% | 1018.1 hPa | 0 mm | - | - | - |
| 1777374952 | -3.89° C | 76% | 1018.2 hPa | 0 mm | - | - | - |
| 1777374110 | -3.33° C | 74% | 1018.2 hPa | 0 mm | - | - | - |
| 1777373149 | -3.33° C | 74% | 1018.1 hPa | 0 mm | - | - | - |
| 1777372248 | -3.33° C | 74% | 1018 hPa | 0 mm | - | - | - |
* Rain latest hour (hover to see other rain measurements)
** Current wind speed in m/s (hover to see current wind gust speed)